Time;durP1;ratioP1;P1;durP2;ratioP2;P2;SDS_P1;SDS_P2;PMS_P1;PMS_P2;Temp;Humidity;BMP_temperature;BMP_pressure;BME280_temperature;BME280_humidity;BME280_pressure;Samples;Min_cycle;Max_cycle;Signal;HPM_P1;HPM_P2
2022/06/14 00:02:34;;;;;;;4.70;3.55;;;16.70;54.90;;;17.28;46.18;98215.22;5022942;28;20045;-41
2022/06/14 00:05:02;;;;;;;7.03;4.00;;;16.70;55.00;;;17.26;46.16;98212.69;5022405;28;20049;-41
2022/06/14 00:07:29;;;;;;;5.53;3.83;;;16.70;54.90;;;17.25;46.18;98213.75;5022323;28;20243;-40
2022/06/14 00:09:57;;;;;;;7.22;4.53;;;16.70;55.00;;;17.21;46.00;98211.59;5023178;28;20049;-41
2022/06/14 00:12:26;;;;;;;6.30;4.22;;;16.60;55.00;;;17.21;45.98;98216.97;5021945;28;20286;-41
2022/06/14 00:14:53;;;;;;;5.30;3.42;;;16.70;54.70;;;17.23;46.23;98214.94;5022558;28;20064;-41
2022/06/14 00:17:21;;;;;;;10.02;4.07;;;16.80;54.90;;;17.17;46.49;98208.44;5021650;28;20054;-41
2022/06/14 00:19:49;;;;;;;7.90;3.80;;;16.60;55.10;;;17.08;46.59;98206.91;5022620;28;20049;-40
2022/06/14 00:22:17;;;;;;;6.72;3.97;;;16.50;55.70;;;17.06;46.45;98209.78;5022711;28;20041;-41
2022/06/14 00:24:45;;;;;;;7.43;3.85;;;16.50;55.60;;;17.01;46.93;98206.00;5023336;28;20045;-40
2022/06/14 00:27:12;;;;;;;7.18;4.00;;;16.50;56.00;;;17.00;47.07;98204.31;5022671;28;20045;-40
2022/06/14 00:29:41;;;;;;;6.03;4.13;;;16.50;56.00;;;16.99;47.08;98208.88;5022312;28;20049;-41
2022/06/14 00:32:09;;;;;;;6.57;4.38;;;16.50;56.20;;;16.94;47.07;98200.53;5022486;28;20434;-40
2022/06/14 00:34:38;;;;;;;9.02;4.47;;;16.40;56.10;;;16.89;47.24;98208.34;5021892;28;20050;-40
2022/06/14 00:37:17;;;;;;;5.80;4.00;;;16.30;56.30;;;16.82;47.26;98202.88;5022440;28;20060;-41
2022/06/14 00:39:46;;;;;;;6.03;4.30;;;16.30;57.00;;;16.79;47.36;98207.75;5022214;28;20059;-40
2022/06/14 00:42:21;;;;;;;5.00;3.80;;;16.20;56.70;;;16.76;47.33;98203.59;5023350;28;20054;-41
2022/06/14 00:45:27;;;;;;;7.85;4.25;;;16.20;57.20;;;16.67;47.47;98197.50;5022193;28;20045;-41
2022/06/14 00:48:15;;;;;;;9.25;4.32;;;16.20;58.10;;;16.64;47.87;98203.22;5022098;28;20050;-40
2022/06/14 00:51:16;;;;;;;6.63;4.47;;;16.10;57.90;;;16.57;48.26;98198.78;5022382;28;20049;-40
2022/06/14 00:54:15;;;;;;;6.38;3.85;;;16.00;58.30;;;16.51;48.01;98197.66;5020821;28;20072;-40
2022/06/14 00:56:58;;;;;;;7.70;4.10;;;16.00;58.00;;;16.47;48.06;98197.19;5022140;28;20049;-40
2022/06/14 01:00:09;;;;;;;10.25;4.45;;;15.90;58.20;;;16.44;47.60;98194.03;5022735;28;20064;-40
2022/06/14 01:02:52;;;;;;;7.97;3.63;;;15.80;57.90;;;16.41;47.70;98197.13;5039887;28;20094;-40
2022/06/14 01:06:05;;;;;;;9.07;4.65;;;15.80;57.90;;;16.41;47.54;98192.56;5023529;28;20058;-40
2022/06/14 01:08:18;;;;;;;6.90;3.80;;;15.80;57.20;;;16.44;47.96;98185.97;5020703;28;20053;-40
2022/06/14 01:10:47;;;;;;;7.05;4.25;;;15.90;57.40;;;16.42;47.95;98194.25;5020812;28;20060;-40
2022/06/14 01:13:18;;;;;;;8.65;3.58;;;15.90;57.50;;;16.38;48.09;98192.97;5022199;28;20045;-40
2022/06/14 01:15:50;;;;;;;6.00;4.47;;;15.80;57.90;;;16.37;48.38;98198.50;5020901;28;20042;-40
2022/06/14 01:18:18;;;;;;;6.18;4.20;;;15.80;58.00;;;16.38;48.25;98184.03;5024896;28;20296;-40
2022/06/14 01:20:46;;;;;;;7.07;4.63;;;15.80;57.80;;;16.37;48.08;98182.38;5026095;28;20049;-40
2022/06/14 01:23:17;;;;;;;5.70;4.00;;;15.80;57.60;;;16.32;48.22;98183.78;5025743;28;20056;-40
2022/06/14 01:26:01;;;;;;;8.52;4.05;;;15.80;57.90;;;16.26;48.67;98184.50;5008642;28;20050;-40
2022/06/14 01:28:30;;;;;;;6.32;3.92;;;15.70;59.10;;;16.23;48.65;98182.19;5024726;28;20045;-40
2022/06/14 01:30:58;;;;;;;7.78;4.32;;;15.70;58.30;;;16.20;48.79;98182.56;5024862;28;20046;-40
2022/06/14 01:33:33;;;;;;;7.03;3.67;;;15.60;58.30;;;16.21;49.03;98183.41;5025943;28;20050;-41
2022/06/14 01:36:07;;;;;;;11.52;4.65;;;15.70;59.00;;;16.14;48.65;98183.28;5025554;28;20054;-41
2022/06/14 01:38:36;;;;;;;5.60;4.13;;;15.60;58.40;;;16.10;48.47;98173.94;5024894;28;20064;-41
2022/06/14 01:41:19;;;;;;;5.90;4.28;;;15.60;58.10;;;16.09;48.52;98175.78;5024464;28;20362;-40
2022/06/14 01:44:21;;;;;;;11.27;4.65;;;15.60;58.60;;;16.10;48.83;98185.50;5024462;28;20052;-41
2022/06/14 01:47:30;;;;;;;6.50;4.13;;;15.60;59.40;;;16.04;48.56;98178.19;5025316;28;20061;-40
2022/06/14 01:53:46;;;;;;;7.35;3.88;;;15.40;59.20;;;15.96;48.96;98182.81;5025165;28;20060;-40
2022/06/14 01:56:36;;;;;;;7.50;4.55;;;15.40;60.40;;;15.96;48.72;98185.50;5025224;28;20050;-40
2022/06/14 01:59:23;;;;;;;6.93;3.90;;;15.40;59.80;;;15.88;49.36;98181.88;5025143;28;20046;-40
2022/06/14 02:02:18;;;;;;;7.82;4.43;;;15.40;59.60;;;15.85;49.37;98178.69;5024215;28;20052;-41
2022/06/14 02:05:32;;;;;;;11.60;4.22;;;15.40;60.80;;;15.84;49.21;98175.19;5024960;28;20041;-41
2022/06/14 02:08:08;;;;;;;9.00;4.68;;;15.30;59.70;;;15.82;49.11;98184.44;5024949;28;20261;-40
2022/06/14 02:10:44;;;;;;;5.90;4.30;;;15.30;59.60;;;15.78;49.19;98177.75;5024942;28;20052;-40
2022/06/14 02:13:32;;;;;;;11.30;4.55;;;15.20;59.50;;;15.74;49.20;98175.44;5025118;28;20248;-40
2022/06/14 02:16:13;;;;;;;4.82;3.60;;;15.20;59.90;;;15.72;49.14;98176.59;5024767;28;20064;-40
2022/06/14 02:19:09;;;;;;;6.30;4.07;;;15.20;59.30;;;15.68;49.42;98178.84;5024768;28;20054;-40
2022/06/14 02:21:46;;;;;;;7.18;4.20;;;15.20;60.10;;;15.68;49.58;98173.47;5023933;28;20060;-40
2022/06/14 02:24:45;;;;;;;6.47;3.75;;;15.10;60.10;;;15.61;49.72;98175.19;5023273;28;20062;-40
2022/06/14 02:27:21;;;;;;;7.72;4.25;;;15.10;60.70;;;15.58;49.75;98174.72;5024778;28;20046;-40
2022/06/14 02:29:58;;;;;;;6.47;4.00;;;15.00;60.20;;;15.57;49.69;98171.19;5023898;28;20046;-40
2022/06/14 02:32:41;;;;;;;5.05;3.65;;;15.10;60.00;;;15.56;49.93;98172.19;5024668;28;20048;-40
2022/06/14 02:35:20;;;;;;;5.10;3.85;;;15.10;60.50;;;15.53;49.88;98177.94;5023401;28;20049;-40
2022/06/14 02:38:17;;;;;;;5.18;4.22;;;15.00;60.30;;;15.48;49.89;98172.28;5023385;28;20050;-40
2022/06/14 02:41:03;;;;;;;8.13;4.53;;;14.90;60.60;;;15.39;50.54;98173.34;5023573;28;20045;-40
2022/06/14 02:44:16;;;;;;;6.57;4.57;;;14.90;61.40;;;15.35;49.83;98173.72;5024393;28;20045;-40
2022/06/14 02:46:57;;;;;;;6.50;4.07;;;14.80;61.40;;;15.35;50.19;98170.19;5023959;28;20046;-40
2022/06/14 02:49:54;;;;;;;7.35;4.80;;;14.70;61.20;;;15.35;50.04;98167.50;5024186;28;20064;-40
2022/06/14 02:52:48;;;;;;;7.40;4.50;;;14.70;61.00;;;15.29;49.98;98169.03;5024362;28;20362;-39
2022/06/14 02:55:28;;;;;;;;;;;14.70;60.70;;;15.20;50.42;98167.44;5023733;28;20045;-40
2022/06/14 02:58:01;;;;;;;5.18;3.95;;;14.60;63.00;;;15.23;50.14;98168.94;5022952;28;19917;-40
2022/06/14 03:00:46;;;;;;;6.05;3.95;;;14.60;61.10;;;15.26;50.05;98171.28;5024280;28;20252;-40
2022/06/14 03:03:38;;;;;;;6.65;4.03;;;14.70;60.80;;;15.27;50.03;98173.75;5023059;28;20037;-40
2022/06/14 03:06:25;;;;;;;7.13;4.10;;;14.80;61.30;;;15.25;50.19;98178.47;5022665;28;20041;-40
2022/06/14 03:09:14;;;;;;;6.53;3.85;;;14.70;61.20;;;15.23;50.36;98172.44;5023124;28;20054;-40
2022/06/14 03:12:32;;;;;;;8.93;4.15;;;14.70;61.40;;;15.21;50.62;98173.66;5022933;28;20069;-40
2022/06/14 03:15:25;;;;;;;6.93;3.97;;;14.70;62.30;;;15.16;50.65;98172.34;5023571;28;20058;-40
2022/06/14 03:18:22;;;;;;;6.85;4.15;;;14.60;62.00;;;15.10;50.70;98172.19;5023378;28;20053;-40
2022/06/14 03:21:16;;;;;;;5.55;3.80;;;14.60;62.30;;;15.02;51.32;98162.34;5022888;28;20054;-40
2022/06/14 03:24:12;;;;;;;11.60;4.75;;;14.40;62.60;;;14.99;50.98;98167.25;5022720;28;20056;-40
2022/06/14 03:26:50;;;;;;;5.20;3.72;;;14.40;63.00;;;14.98;50.91;98169.06;5023894;28;20050;-40
2022/06/14 03:29:48;;;;;;;6.82;3.58;;;14.50;63.00;;;14.95;51.04;98150.69;5021907;28;20046;-40
2022/06/14 03:32:27;;;;;;;4.43;3.38;;;14.50;62.70;;;14.93;51.13;98158.91;5022566;28;20050;-40
2022/06/14 03:35:10;;;;;;;6.10;4.10;;;14.40;62.20;;;14.91;51.29;98160.91;5022428;28;20050;-40
2022/06/14 03:37:38;;;;;;;5.75;4.03;;;14.40;62.70;;;14.93;51.09;98152.72;5021984;28;20051;-40
2022/06/14 03:40:13;;;;;;;6.70;4.30;;;14.50;61.90;;;14.92;51.07;98169.78;5022553;28;20053;-40
2022/06/14 03:42:41;;;;;;;7.03;4.10;;;14.40;62.10;;;14.92;51.03;98159.88;5022145;28;20069;-40
2022/06/14 03:45:15;;;;;;;5.28;3.97;;;14.40;61.80;;;14.89;51.25;98167.47;5023239;28;20048;-40
2022/06/14 03:47:43;;;;;;;9.85;4.20;;;14.40;63.10;;;14.82;51.25;98167.31;5022105;28;20228;-40
2022/06/14 03:50:25;;;;;;;5.63;3.88;;;14.30;62.70;;;14.77;51.44;98165.19;5021868;28;20045;-39
2022/06/14 03:53:25;;;;;;;6.57;3.88;;;14.20;63.00;;;14.82;51.43;98169.19;5008105;28;20046;-41
2022/06/14 03:56:16;;;;;;;8.52;4.15;;;14.30;63.50;;;14.86;51.40;98168.63;5022017;28;20056;-40
2022/06/14 03:59:34;;;;;;;4.88;3.85;;;14.40;62.90;;;14.85;51.27;98168.81;5021912;28;20054;-40
2022/06/14 04:02:20;;;;;;;6.45;3.58;;;14.40;63.50;;;14.85;51.40;98167.00;5021962;28;20060;-41
2022/06/14 04:05:02;;;;;;;9.05;4.25;;;14.40;62.60;;;14.79;51.81;98164.16;5021919;28;20056;-41
2022/06/14 04:07:51;;;;;;;5.18;3.53;;;14.30;63.10;;;14.75;51.56;98161.84;5021753;28;20343;-41
2022/06/14 04:10:40;;;;;;;7.15;3.63;;;14.20;62.70;;;14.79;51.68;98162.31;5021916;28;20252;-40
2022/06/14 04:13:26;;;;;;;8.60;3.95;;;14.30;63.00;;;14.81;51.92;98163.00;5022634;28;20049;-40
2022/06/14 04:16:31;;;;;;;6.55;4.18;;;14.40;63.30;;;14.84;51.91;98165.31;5022624;28;20056;-40
2022/06/14 04:19:26;;;;;;;7.72;4.40;;;14.40;63.00;;;14.85;51.79;98152.72;5021684;28;20121;-40
2022/06/14 04:22:11;;;;;;;7.63;4.22;;;14.50;64.30;;;14.89;51.96;98160.25;5022839;28;20060;-40
2022/06/14 04:24:49;;;;;;;6.63;3.28;;;14.40;63.20;;;14.90;51.94;98159.22;5021437;28;20050;-40
2022/06/14 04:27:31;;;;;;;4.78;3.60;;;14.50;63.00;;;14.84;52.32;98159.94;5021772;28;20366;-40
2022/06/14 04:30:36;;;;;;;5.13;3.83;;;14.40;63.70;;;14.85;52.23;98166.13;5021793;28;20060;-40
2022/06/14 04:33:17;;;;;;;;;;;14.40;63.80;;;14.88;52.16;98171.97;5022958;28;20052;-41
2022/06/14 04:36:14;;;;;;;6.47;3.72;;;14.50;64.50;;;15.02;51.66;98172.25;5020782;28;19917;-41
2022/06/14 04:38:59;;;;;;;5.93;3.35;;;14.70;62.80;;;15.10;51.49;98172.19;5022198;28;20344;-40
2022/06/14 04:41:47;;;;;;;5.43;3.53;;;14.80;61.70;;;15.22;50.97;98177.97;5021972;28;20056;-41
2022/06/14 04:44:44;;;;;;;7.15;3.17;;;15.00;60.40;;;15.30;50.90;98173.41;5021271;28;20053;-41
2022/06/14 04:47:21;;;;;;;7.43;3.60;;;15.10;59.80;;;15.35;50.82;98172.88;5021294;28;20041;-41
2022/06/14 04:49:59;;;;;;;11.18;4.53;;;15.10;59.60;;;15.41;50.47;98169.50;5020790;28;20049;-40
2022/06/14 04:52:41;;;;;;;6.95;3.75;;;15.20;59.70;;;15.48;50.47;98165.06;5020915;28;20052;-40
2022/06/14 04:55:21;;;;;;;7.30;3.67;;;15.30;59.50;;;15.50;50.57;98168.38;5021247;28;20045;-40
2022/06/14 04:58:14;;;;;;;5.47;3.20;;;15.30;59.30;;;15.55;50.28;98173.22;5020966;28;20353;-39
2022/06/14 05:00:57;;;;;;;7.07;4.03;;;15.30;59.00;;;15.58;50.39;98172.84;5022434;28;20056;-40
2022/06/14 05:04:03;;;;;;;6.50;4.47;;;15.30;59.30;;;15.64;50.37;98166.75;5021292;28;20272;-40
2022/06/14 05:06:50;;;;;;;6.55;4.50;;;15.40;59.10;;;15.69;50.28;98168.91;5021346;28;20290;-40
2022/06/14 05:09:56;;;;;;;8.30;4.63;;;15.40;59.20;;;15.71;50.37;98174.94;5020870;28;20060;-40
2022/06/14 05:12:36;;;;;;;6.22;3.97;;;15.50;59.20;;;15.78;49.97;98162.50;5021111;28;20061;-40
2022/06/14 05:15:41;;;;;;;6.32;4.30;;;15.60;58.30;;;15.83;50.05;98170.00;5020899;28;20049;-40
2022/06/14 05:18:27;;;;;;;11.05;4.60;;;15.70;58.20;;;15.88;49.86;98162.25;5020664;28;20151;-40
2022/06/14 05:21:43;;;;;;;7.22;3.95;;;15.70;58.30;;;15.93;49.90;98159.81;5020820;28;20052;-40
2022/06/14 05:24:11;;;;;;;7.47;5.05;;;15.80;58.90;;;15.99;49.85;98158.25;5021912;28;20066;-40
2022/06/14 05:27:17;;;;;;;6.85;3.58;;;15.80;58.40;;;16.00;49.99;98163.47;5022105;28;20356;-40
2022/06/14 05:30:09;;;;;;;8.68;4.65;;;15.80;59.10;;;16.04;50.06;98162.06;5021357;28;20054;-40
2022/06/14 05:33:34;;;;;;;6.35;4.78;;;15.90;59.00;;;16.10;50.07;98160.50;5004960;28;20100;-40
2022/06/14 05:36:08;;;;;;;7.55;4.45;;;15.90;59.20;;;16.16;49.88;98167.81;5021712;28;20050;-40
2022/06/14 05:38:47;;;;;;;6.55;4.03;;;16.00;58.50;;;16.20;49.95;98163.75;5021678;28;20052;-40
2022/06/14 05:41:43;;;;;;;6.05;5.20;;;16.10;58.30;;;16.24;49.75;98164.22;5021786;28;20252;-41
2022/06/14 05:44:25;;;;;;;9.48;5.10;;;16.10;57.90;;;16.29;49.63;98164.50;5021306;28;20068;-40
2022/06/14 05:46:56;;;;;;;7.03;4.82;;;16.10;57.90;;;16.30;49.58;98167.00;5021149;28;20348;-40
2022/06/14 05:49:32;;;;;;;7.07;4.38;;;16.10;57.70;;;16.35;49.66;98171.81;5020481;28;20046;-40
2022/06/14 05:52:17;;;;;;;5.53;4.72;;;16.20;57.90;;;16.35;49.33;98174.50;5021948;28;20046;-40
2022/06/14 05:55:15;;;;;;;9.23;4.72;;;16.20;57.50;;;16.37;49.58;98179.69;5021106;28;20281;-40
2022/06/14 05:57:54;;;;;;;8.18;4.90;;;16.30;57.90;;;16.40;49.66;98174.78;5021424;28;20053;-40
2022/06/14 06:00:34;;;;;;;7.45;5.10;;;16.30;57.80;;;16.46;49.73;98178.56;5020781;28;20050;-40
2022/06/14 06:03:51;;;;;;;7.70;4.70;;;16.30;57.80;;;16.49;49.75;98172.84;5020655;28;20050;-41
2022/06/14 06:06:32;;;;;;;7.95;4.35;;;16.40;58.40;;;16.44;49.87;98176.09;5024078;28;20071;-40
2022/06/14 06:09:33;;;;;;;10.38;4.75;;;16.40;57.60;;;16.47;49.61;98173.00;5024180;28;20240;-40
2022/06/14 06:12:27;;;;;;;8.25;4.85;;;16.50;57.80;;;16.57;49.70;98177.28;5023091;28;20077;-40
2022/06/14 06:15:22;;;;;;;15.10;5.80;;;16.50;58.20;;;16.61;49.62;98171.34;5023835;28;20053;-40
2022/06/14 06:18:08;;;;;;;11.15;4.43;;;16.60;57.50;;;16.64;49.09;98170.16;5024789;28;20049;-41
2022/06/14 06:21:15;;;;;;;7.53;5.30;;;16.50;57.20;;;16.67;49.50;98165.22;5023870;28;20295;-40
2022/06/14 06:23:59;;;;;;;14.93;5.85;;;16.60;57.50;;;16.70;49.63;98164.84;5024237;28;20309;-41
2022/06/14 06:26:30;;;;;;;;;;;16.60;57.70;;;16.71;49.36;98157.59;5024024;28;20045;-40
2022/06/14 06:29:27;;;;;;;18.27;6.80;;;16.60;58.50;;;16.79;49.83;98165.59;5023649;28;19924;-41
2022/06/14 06:31:55;;;;;;;9.98;5.18;;;16.70;58.60;;;16.83;49.94;98169.59;5023895;28;20053;-41
2022/06/14 06:34:24;;;;;;;9.68;4.72;;;16.70;58.50;;;16.87;49.91;98170.88;5024591;28;20263;-40
2022/06/14 06:37:01;;;;;;;12.35;6.35;;;16.80;58.00;;;16.90;50.05;98175.88;5024760;28;20056;-41
2022/06/14 06:39:44;;;;;;;6.97;4.97;;;16.90;58.10;;;16.88;51.02;98166.31;5024509;28;20054;-41
2022/06/14 06:42:33;;;;;;;11.80;6.28;;;16.90;58.60;;;16.92;50.52;98167.59;5024712;28;20056;-40
2022/06/14 06:45:24;;;;;;;9.85;4.80;;;17.00;58.20;;;17.00;50.26;98161.28;5024174;28;20048;-40
2022/06/14 06:47:58;;;;;;;13.35;6.60;;;17.00;58.20;;;17.07;50.13;98170.28;5022981;28;20060;-41
2022/06/14 06:50:38;;;;;;;7.53;5.63;;;17.00;57.90;;;17.12;50.37;98171.38;5023406;28;20048;-41
2022/06/14 06:53:16;;;;;;;10.43;5.82;;;17.20;58.20;;;17.19;50.05;98167.91;5024960;28;20060;-41
2022/06/14 06:56:08;;;;;;;9.07;5.50;;;17.20;58.00;;;17.24;50.20;98165.50;5024315;28;20117;-41
2022/06/14 06:59:46;;;;;;;14.13;5.65;;;17.20;58.90;;;17.31;50.15;98163.69;5023024;28;20050;-40
2022/06/14 07:02:35;;;;;;;10.63;5.07;;;17.30;59.00;;;17.37;50.85;98167.47;5027268;28;20244;-41
2022/06/14 07:05:05;;;;;;;11.75;5.53;;;17.40;59.40;;;17.40;50.81;98161.72;5022908;28;20048;-40
2022/06/14 07:07:43;;;;;;;10.85;6.80;;;17.50;58.80;;;17.46;51.03;98159.06;5022834;28;20046;-41
2022/06/14 07:10:16;;;;;;;11.00;5.47;;;17.50;58.90;;;17.53;50.67;98161.84;5021979;28;20056;-41
2022/06/14 07:13:09;;;;;;;6.93;5.00;;;17.60;58.50;;;17.61;49.43;98163.56;5023884;28;20062;-41
2022/06/14 07:15:59;;;;;;;9.48;5.03;;;17.70;56.80;;;17.68;49.42;98170.69;5022513;28;20267;-41
2022/06/14 07:18:50;;;;;;;8.73;5.35;;;17.80;56.60;;;17.70;48.20;98157.84;5023670;28;20046;-41
2022/06/14 07:21:24;;;;;;;8.57;4.95;;;17.80;55.50;;;17.76;48.89;98169.72;5023055;28;20244;-41
2022/06/14 07:24:01;;;;;;;;;;;17.80;55.90;;;17.76;48.95;98167.00;5022708;28;20343;-41
2022/06/14 07:26:52;;;;;;;9.40;5.57;;;17.80;55.80;;;17.84;49.33;98164.22;5022582;28;19980;-40
2022/06/14 07:29:35;;;;;;;9.02;5.53;;;17.90;57.10;;;17.91;49.38;98164.25;5022493;28;20060;-40
2022/06/14 07:32:36;;;;;;;10.18;5.95;;;18.00;56.60;;;17.95;49.55;98154.78;5022731;28;20050;-41
2022/06/14 07:35:04;;;;;;;10.10;5.72;;;17.90;57.20;;;18.02;49.64;98165.59;5022540;28;20042;-41
2022/06/14 07:37:47;;;;;;;7.28;5.57;;;18.00;57.10;;;18.07;48.98;98157.75;5023254;28;20229;-41
2022/06/14 07:40:58;;;;;;;10.40;5.18;;;18.10;56.90;;;18.14;48.63;98168.56;5023286;28;20233;-40
2022/06/14 07:43:50;;;;;;;7.93;5.40;;;18.20;55.40;;;18.19;48.38;98174.22;5023063;28;20050;-41
2022/06/14 07:46:32;;;;;;;6.53;4.97;;;18.30;55.00;;;18.26;48.43;98169.66;5022968;28;20045;-41
2022/06/14 07:49:15;;;;;;;9.15;5.15;;;18.30;55.10;;;18.30;47.61;98169.09;5022977;28;20052;-40
2022/06/14 07:51:54;;;;;;;10.83;5.63;;;18.50;54.30;;;18.39;47.92;98158.97;5022431;28;20056;-40
2022/06/14 07:54:32;;;;;;;9.85;5.28;;;18.50;54.40;;;18.46;47.54;98167.13;5023051;28;20054;-40
2022/06/14 07:57:14;;;;;;;10.93;5.32;;;18.60;53.90;;;18.48;46.59;98160.47;5023887;28;20050;-40
2022/06/14 07:59:55;;;;;;;7.53;4.97;;;18.60;52.90;;;18.56;47.01;98161.34;5021847;28;20062;-40
2022/06/14 08:02:44;;;;;;;10.00;5.50;;;18.70;53.30;;;18.60;46.98;98163.44;5022031;28;20049;-39
2022/06/14 08:05:25;;;;;;;7.72;5.25;;;18.80;52.60;;;18.65;46.91;98160.13;5021836;28;20362;-39
2022/06/14 08:07:56;;;;;;;10.90;5.85;;;18.80;53.10;;;18.73;47.41;98162.69;5021779;28;20050;-39
2022/06/14 08:10:32;;;;;;;6.65;5.47;;;18.90;54.00;;;18.78;46.50;98156.69;5022388;28;20052;-40
2022/06/14 08:13:09;;;;;;;7.55;5.65;;;18.90;52.90;;;18.85;46.44;98157.56;5022016;28;20056;-40
2022/06/14 08:15:43;;;;;;;11.30;5.93;;;19.00;52.30;;;18.87;46.38;98156.34;5021583;28;20042;-40
2022/06/14 08:18:53;;;;;;;11.10;6.03;;;19.00;52.30;;;18.90;47.49;98157.78;5022765;28;20072;-40
2022/06/14 08:21:33;;;;;;;12.18;6.75;;;19.00;54.00;;;18.98;47.78;98151.38;5011002;28;20367;-39
2022/06/14 08:24:41;;;;;;;9.43;5.63;;;19.10;54.40;;;19.00;47.11;98149.31;5021850;28;20053;-40
2022/06/14 08:27:21;;;;;;;9.95;5.22;;;19.20;52.80;;;19.07;46.96;98156.38;5020964;28;20382;-39
2022/06/14 08:29:59;;;;;;;10.15;4.68;;;19.20;53.20;;;19.12;46.92;98152.28;5021530;28;20050;-40
2022/06/14 08:32:49;;;;;;;8.73;5.72;;;19.30;53.30;;;19.15;46.31;98149.97;5021751;28;20046;-40
2022/06/14 08:35:30;;;;;;;7.68;4.72;;;19.30;52.20;;;19.24;45.30;98147.94;5021374;28;20046;-39
2022/06/14 08:38:06;;;;;;;6.55;5.05;;;19.30;50.80;;;19.29;44.43;98148.16;5022624;28;20056;-40
2022/06/14 08:41:10;;;;;;;12.70;5.10;;;19.50;49.40;;;19.35;44.80;98143.78;5023040;28;20041;-40
2022/06/14 08:43:46;;;;;;;7.25;4.30;;;19.50;49.50;;;19.39;45.32;98150.47;5022823;28;20057;-40
2022/06/14 08:46:41;;;;;;;13.18;5.43;;;19.50;50.70;;;19.43;44.45;98154.41;5021893;28;20072;-40
2022/06/14 08:49:30;;;;;;;6.38;4.20;;;19.60;49.40;;;19.49;44.72;98158.97;5022144;28;20108;-40
2022/06/14 08:52:39;;;;;;;7.35;4.70;;;19.60;49.00;;;19.55;44.19;98150.06;5021890;28;20056;-40
2022/06/14 08:55:52;;;;;;;8.35;4.22;;;19.70;49.30;;;19.60;44.08;98144.88;5021311;28;20046;-40
2022/06/14 08:58:33;;;;;;;6.93;4.30;;;19.80;47.90;;;19.66;43.81;98138.63;5020600;28;20358;-40
2022/06/14 09:01:19;;;;;;;6.50;4.57;;;19.80;48.70;;;19.71;43.85;98137.19;5022284;28;20052;-40
2022/06/14 09:04:06;;;;;;;5.97;4.32;;;19.80;49.20;;;19.77;44.70;98133.66;5022139;28;20050;-40
2022/06/14 09:06:47;;;;;;;9.95;4.65;;;19.90;50.20;;;19.83;44.47;98135.53;5022230;28;20240;-39
2022/06/14 09:09:33;;;;;;;7.05;4.50;;;20.00;50.10;;;19.84;43.74;98124.53;5021149;28;20053;-41
2022/06/14 09:12:28;;;;;;;8.48;4.80;;;20.00;48.50;;;19.86;43.59;98121.63;5022089;28;20247;-40
2022/06/14 09:15:28;;;;;;;6.93;4.80;;;20.10;48.50;;;19.88;44.13;98116.00;5020953;28;20367;-40
2022/06/14 09:18:39;;;;;;;6.67;4.30;;;20.00;49.20;;;19.95;42.67;98114.13;5020923;28;20049;-39
2022/06/14 09:21:24;;;;;;;7.53;4.63;;;20.10;48.20;;;20.03;43.12;98111.22;5022038;28;20054;-38
2022/06/14 09:24:08;;;;;;;8.40;4.20;;;20.20;47.60;;;20.08;42.68;98116.81;5020775;28;20050;-40
2022/06/14 09:27:14;;;;;;;8.48;4.88;;;20.20;46.60;;;20.11;43.24;98110.16;5022158;28;20050;-39
2022/06/14 09:30:09;;;;;;;13.75;5.03;;;20.30;47.80;;;20.18;43.03;98109.09;5021924;28;20052;-40
2022/06/14 09:33:09;;;;;;;;;;;20.40;47.40;;;20.20;42.87;98107.03;5022500;28;20042;-39
2022/06/14 09:36:02;;;;;;;7.72;4.25;;;20.40;46.40;;;20.26;41.15;98108.06;5020770;28;20222;-40
2022/06/14 09:38:54;;;;;;;4.95;4.25;;;20.40;45.80;;;20.32;40.88;98111.78;5023125;28;20060;-40
2022/06/14 09:41:40;;;;;;;6.30;4.57;;;20.50;46.20;;;20.41;41.03;98097.81;5025925;28;20058;-39
2022/06/14 09:44:20;;;;;;;9.75;4.25;;;20.50;45.80;;;20.44;40.72;98104.66;5025444;28;20382;-39
2022/06/14 09:47:22;;;;;;;15.43;4.57;;;20.60;43.80;;;20.41;40.87;98097.81;5025365;28;20046;-40
2022/06/14 09:50:21;;;;;;;4.15;3.25;;;20.60;43.70;;;20.46;40.75;98091.75;5024798;28;20049;-40
2022/06/14 09:53:15;;;;;;;8.70;4.28;;;20.60;43.40;;;20.51;40.61;98091.97;5025342;28;20045;-39
2022/06/14 09:56:24;;;;;;;8.10;4.32;;;20.60;43.70;;;20.57;40.78;98088.38;5024336;28;20056;-39
2022/06/14 09:59:17;;;;;;;7.80;3.55;;;20.70;44.10;;;20.63;40.25;98084.03;5025088;28;20413;-39
2022/06/14 10:02:13;;;;;;;5.95;4.35;;;20.80;43.10;;;20.63;40.36;98081.31;5025359;28;20056;-40
2022/06/14 10:04:58;;;;;;;9.13;4.25;;;20.80;44.50;;;20.63;38.75;98078.63;5025351;28;20053;-39
2022/06/14 10:07:54;;;;;;;6.15;4.22;;;20.90;42.50;;;20.76;39.43;98081.25;5023972;28;20042;-39
2022/06/14 10:10:32;;;;;;;3.72;3.17;;;21.00;42.20;;;20.85;38.81;98079.13;5025278;28;20049;-39
2022/06/14 10:13:12;;;;;;;5.55;3.30;;;21.00;42.90;;;20.92;39.11;98084.47;5024081;28;20060;-39
2022/06/14 10:16:18;;;;;;;7.68;3.25;;;21.10;41.80;;;20.96;39.25;98073.03;5024964;28;20050;-40
2022/06/14 10:19:36;;;;;;;11.48;4.50;;;21.20;40.30;;;20.97;39.10;98071.97;5023754;28;20068;-40
2022/06/14 10:22:23;;;;;;;6.75;3.42;;;21.20;41.70;;;21.06;39.13;98069.00;5022974;28;20060;-40
2022/06/14 10:25:10;;;;;;;5.35;3.50;;;21.20;42.80;;;21.14;38.82;98069.56;5024460;28;20091;-39
2022/06/14 10:28:13;;;;;;;7.13;3.95;;;21.30;42.50;;;21.17;38.30;98074.56;5024592;28;20044;-40
2022/06/14 10:31:09;;;;;;;10.30;4.57;;;21.40;41.20;;;21.24;37.98;98069.91;5023395;28;20056;-40
2022/06/14 10:33:54;;;;;;;4.15;3.13;;;21.50;40.30;;;21.29;37.44;98077.38;5025172;28;20050;-41
2022/06/14 10:37:02;;;;;;;5.45;3.17;;;21.50;41.00;;;21.32;36.55;98065.28;5024617;28;20048;-41
2022/06/14 10:39:44;;;;;;;5.50;3.10;;;21.60;38.30;;;21.37;35.82;98060.03;5024538;28;20260;-41
2022/06/14 10:42:17;;;;;;;6.47;3.92;;;21.60;38.90;;;21.43;37.18;98067.28;5024885;28;20252;-41
2022/06/14 10:45:00;;;;;;;5.30;3.50;;;21.70;40.40;;;21.48;37.12;98062.06;5024655;28;20046;-41
2022/06/14 10:48:14;;;;;;;9.38;3.70;;;21.70;40.30;;;21.49;36.28;98058.28;5024075;28;20046;-41
2022/06/14 10:51:21;;;;;;;5.70;3.20;;;21.80;38.60;;;21.59;36.77;98053.19;5023482;28;20052;-41
2022/06/14 10:53:54;;;;;;;7.78;4.70;;;21.80;39.30;;;21.66;37.08;98057.75;5023411;28;20044;-40
2022/06/14 10:57:08;;;;;;;6.72;4.05;;;21.90;40.20;;;21.76;36.24;98056.19;5024593;28;20045;-41
2022/06/14 11:00:11;;;;;;;4.88;3.17;;;22.00;37.60;;;21.85;35.44;98051.31;5024046;28;20255;-41
2022/06/14 11:03:01;;;;;;;7.72;4.13;;;22.10;38.30;;;21.90;36.02;98043.31;5023449;28;20060;-41
2022/06/14 11:06:13;;;;;;;6.40;3.20;;;22.10;37.00;;;21.90;35.31;98040.59;5024232;28;20049;-40
2022/06/14 11:09:08;;;;;;;5.93;3.60;;;22.20;36.90;;;21.88;35.15;98036.47;5023826;28;20358;-41
2022/06/14 11:11:50;;;;;;;4.88;3.30;;;22.20;36.60;;;21.89;35.52;98036.25;5023915;28;20052;-41
2022/06/14 11:14:42;;;;;;;6.47;3.67;;;22.10;37.70;;;21.97;35.84;98035.94;5024023;28;20050;-41
2022/06/14 11:17:44;;;;;;;6.35;3.00;;;22.20;37.70;;;22.02;35.99;98038.81;5024026;28;20050;-41
2022/06/14 11:20:24;;;;;;;5.18;3.75;;;22.30;38.20;;;22.08;36.10;98033.53;5022626;28;20062;-41
2022/06/14 11:23:14;;;;;;;4.80;3.50;;;22.40;39.80;;;22.10;35.08;98034.13;5024182;28;20054;-41
2022/06/14 11:26:07;;;;;;;4.55;3.17;;;22.40;37.20;;;22.15;35.60;98029.69;5023618;28;20050;-41
2022/06/14 11:29:11;;;;;;;6.03;3.85;;;22.50;38.20;;;22.23;35.73;98020.44;5023466;28;20350;-41
2022/06/14 11:32:03;;;;;;;6.90;3.30;;;22.60;37.60;;;22.27;35.00;98024.38;5023450;28;20248;-40
2022/06/14 11:35:15;;;;;;;6.13;3.67;;;22.70;37.10;;;22.40;35.52;98023.41;5022725;28;20042;-40
2022/06/14 11:37:59;;;;;;;4.68;3.03;;;22.80;37.90;;;22.50;34.14;98020.97;5023312;28;20054;-40
2022/06/14 11:40:41;;;;;;;6.70;3.72;;;22.90;36.90;;;22.61;33.86;98019.38;5022370;28;20046;-40
2022/06/14 11:43:45;;;;;;;7.77;3.40;;;23.00;36.40;;;22.71;33.63;98016.09;5022349;28;20060;-40
2022/06/14 11:46:52;;;;;;;7.72;2.88;;;23.20;35.00;;;22.87;34.58;98018.16;5023220;28;20293;-40
2022/06/14 11:50:01;;;;;;;7.07;3.42;;;23.40;36.50;;;23.00;33.99;98014.41;5022061;28;20050;-40